createdAt,value
2018-12-25T00:01:17.217Z,92.70
2018-12-25T00:03:45.617Z,92.50
2018-12-25T00:06:15.445Z,92.60
2018-12-25T00:08:43.795Z,92.80
2018-12-25T00:11:13.353Z,92.80
2018-12-25T00:13:41.750Z,93.00
2018-12-25T00:16:10.110Z,93.10
2018-12-25T00:18:39.064Z,93.30
2018-12-25T00:21:07.450Z,93.70
2018-12-25T00:23:35.824Z,93.60
2018-12-25T00:26:04.210Z,93.60
2018-12-25T00:28:32.575Z,93.60
2018-12-25T00:31:00.975Z,93.70
2018-12-25T00:33:29.348Z,93.90
2018-12-25T00:35:58.071Z,93.50
2018-12-25T00:38:26.743Z,93.30
2018-12-25T00:40:57.709Z,93.40
2018-12-25T00:43:26.083Z,93.60
2018-12-25T00:45:54.596Z,93.50
2018-12-25T00:48:22.980Z,93.20
2018-12-25T00:50:51.363Z,93.30
2018-12-25T00:53:20.195Z,93.40
2018-12-25T00:55:48.582Z,93.30
2018-12-25T00:58:16.953Z,93.30
2018-12-25T01:00:45.353Z,93.30
2018-12-25T01:03:13.829Z,93.50
2018-12-25T01:05:43.680Z,93.80
2018-12-25T01:08:12.055Z,94.10
2018-12-25T01:10:40.453Z,94.10
2018-12-25T01:13:08.815Z,93.90
2018-12-25T01:15:37.212Z,93.60
2018-12-25T01:18:05.579Z,93.70
2018-12-25T01:20:33.976Z,93.80
2018-12-25T01:23:02.349Z,94.10
2018-12-25T01:25:30.864Z,94.00
2018-12-25T01:27:59.321Z,94.00
2018-12-25T01:30:28.947Z,94.00
2018-12-25T01:32:57.328Z,94.30
2018-12-25T01:35:27.642Z,94.30
2018-12-25T01:37:55.741Z,94.70
2018-12-25T01:40:24.227Z,94.60
2018-12-25T01:42:52.608Z,94.40
2018-12-25T01:45:20.980Z,94.90
2018-12-25T01:47:49.368Z,95.30
2018-12-25T01:50:17.747Z,96.00
2018-12-25T01:52:46.491Z,96.00
2018-12-25T01:55:15.351Z,95.80
2018-12-25T01:57:43.746Z,95.70
2018-12-25T02:00:12.124Z,95.60
2018-12-25T02:02:40.509Z,96.10
2018-12-25T02:05:08.876Z,96.10
2018-12-25T02:07:39.393Z,96.70
2018-12-25T02:10:08.117Z,97.10
2018-12-25T02:12:36.512Z,97.20
2018-12-25T02:15:05.245Z,97.50
2018-12-25T02:17:33.644Z,97.70
2018-12-25T02:20:03.677Z,97.70
2018-12-25T02:22:32.077Z,97.70
2018-12-25T02:25:00.446Z,97.80
2018-12-25T02:27:28.839Z,97.60
2018-12-25T02:29:57.211Z,97.30
2018-12-25T02:32:25.672Z,97.50
2018-12-25T02:34:54.053Z,97.30
2018-12-25T02:37:22.816Z,97.10
2018-12-25T02:39:51.215Z,97.00
2018-12-25T02:42:19.604Z,96.90
2018-12-25T02:44:48.244Z,96.80
2018-12-25T02:47:16.640Z,96.80
2018-12-25T02:49:50.266Z,96.80
2018-12-25T02:52:15.057Z,96.80
2018-12-25T02:54:43.438Z,97.10
2018-12-25T02:57:11.845Z,97.10
2018-12-25T02:59:40.216Z,97.10
2018-12-25T03:02:08.625Z,97.50
2018-12-25T03:04:38.683Z,96.70
2018-12-25T03:07:07.065Z,97.00
2018-12-25T03:09:35.823Z,97.00
2018-12-25T03:12:04.496Z,97.30
2018-12-25T03:14:32.886Z,98.10
2018-12-25T03:17:01.260Z,98.70
2018-12-25T03:19:29.671Z,98.90
2018-12-25T03:21:58.044Z,98.80
2018-12-25T03:24:26.444Z,98.80
2018-12-25T03:26:57.027Z,98.80
2018-12-25T03:29:25.160Z,98.80
2018-12-25T03:31:53.541Z,99.00
2018-12-25T03:34:21.945Z,98.50
2018-12-25T03:36:50.308Z,98.90
2018-12-25T03:39:18.714Z,98.60
2018-12-25T03:41:47.080Z,98.70
2018-12-25T03:44:15.784Z,99.00
2018-12-25T03:46:44.158Z,99.00
2018-12-25T03:49:13.690Z,99.20
2018-12-25T03:51:42.079Z,99.50
2018-12-25T03:54:10.474Z,99.50
2018-12-25T03:56:38.859Z,99.90
2018-12-25T03:59:07.258Z,99.60
2018-12-25T04:01:35.954Z,99.50
2018-12-25T04:04:04.348Z,99.20
2018-12-25T04:06:32.729Z,99.20
2018-12-25T04:09:01.121Z,99.10
2018-12-25T04:11:29.495Z,99.20
2018-12-25T04:13:57.903Z,99.30
2018-12-25T04:16:26.303Z,99.50
2018-12-25T04:18:54.680Z,99.60
2018-12-25T04:21:23.047Z,99.60
2018-12-25T04:23:51.448Z,99.60
2018-12-25T04:26:22.158Z,99.90
2018-12-25T04:28:50.638Z,99.80
2018-12-25T04:31:19.094Z,99.90
2018-12-25T04:33:47.463Z,99.90
2018-12-25T04:36:15.885Z,99.80
2018-12-25T04:38:44.267Z,99.80
2018-12-25T04:41:12.992Z,99.90
2018-12-25T04:43:41.366Z,99.90
2018-12-25T04:46:09.760Z,99.90
2018-12-25T04:48:40.576Z,99.90
2018-12-25T04:51:08.970Z,99.90
2018-12-25T04:53:37.351Z,99.90
2018-12-25T04:56:05.765Z,99.90
2018-12-25T04:58:34.249Z,99.90
2018-12-25T05:01:02.725Z,99.90
2018-12-25T05:03:31.120Z,99.90
2018-12-25T05:05:59.528Z,99.90
2018-12-25T05:08:28.343Z,99.90
2018-12-25T05:10:56.718Z,99.90
2018-12-25T05:13:26.227Z,99.90
2018-12-25T05:15:54.628Z,99.90
2018-12-25T05:18:23.049Z,99.90
2018-12-25T05:20:53.024Z,99.90
2018-12-25T05:23:21.398Z,99.90
2018-12-25T05:25:49.791Z,99.90
2018-12-25T05:28:18.161Z,99.90
2018-12-25T05:30:46.553Z,99.50
2018-12-25T05:33:15.052Z,99.10
2018-12-25T05:35:43.439Z,98.70
2018-12-25T05:38:11.807Z,98.40
2018-12-25T05:40:40.204Z,98.20
2018-12-25T05:43:08.580Z,98.00
2018-12-25T05:45:37.276Z,97.60
2018-12-25T05:48:05.652Z,97.90
2018-12-25T05:50:34.077Z,97.80
2018-12-25T05:53:02.563Z,97.70
2018-12-25T05:55:30.939Z,97.60
2018-12-25T05:57:59.336Z,97.50
2018-12-25T06:00:28.024Z,97.70
2018-12-25T06:02:56.464Z,98.20
2018-12-25T06:05:24.921Z,98.00
2018-12-25T06:07:53.319Z,97.90
2018-12-25T06:10:21.791Z,97.80
2018-12-25T06:12:50.193Z,97.90
2018-12-25T06:15:18.908Z,98.10
2018-12-25T06:17:47.591Z,98.20
2018-12-25T06:20:15.965Z,98.30
2018-12-25T06:22:44.360Z,98.00
2018-12-25T06:25:14.368Z,98.20
2018-12-25T06:27:42.803Z,98.70
2018-12-25T06:30:14.098Z,98.30
2018-12-25T06:32:42.492Z,98.20
2018-12-25T06:35:13.763Z,97.50
2018-12-25T06:37:42.155Z,97.10
2018-12-25T06:40:10.529Z,97.50
2018-12-25T06:42:38.930Z,98.10
2018-12-25T06:45:07.299Z,98.20
2018-12-25T06:47:36.016Z,97.50
2018-12-25T06:50:04.878Z,97.30
2018-12-25T06:52:33.273Z,97.60
2018-12-25T06:55:01.651Z,97.90
2018-12-25T06:57:30.059Z,97.70
2018-12-25T06:59:58.679Z,98.00
2018-12-25T07:02:27.067Z,97.70
2018-12-25T07:04:55.438Z,97.80
2018-12-25T07:07:23.944Z,98.50
2018-12-25T07:09:52.315Z,99.30
2018-12-25T07:12:22.927Z,99.30
2018-12-25T07:14:51.312Z,99.20
2018-12-25T07:17:19.708Z,99.40
2018-12-25T07:19:48.103Z,99.40
2018-12-25T07:22:16.504Z,99.40
2018-12-25T07:24:45.157Z,99.80
2018-12-25T07:27:13.507Z,99.30
2018-12-25T07:29:41.904Z,99.20
2018-12-25T07:32:10.290Z,99.10
2018-12-25T07:34:38.688Z,99.80
2018-12-25T07:37:07.059Z,99.90
2018-12-25T07:39:36.739Z,99.60
2018-12-25T07:42:05.131Z,99.40
2018-12-25T07:44:33.528Z,99.10
2018-12-25T07:47:03.233Z,99.00
2018-12-25T07:49:31.623Z,98.70
2018-12-25T07:51:59.999Z,98.60
2018-12-25T07:54:28.673Z,98.70
2018-12-25T07:56:58.214Z,98.40
2018-12-25T07:59:26.724Z,98.30
2018-12-25T08:01:55.109Z,97.80
2018-12-25T08:04:23.499Z,98.00
2018-12-25T08:06:51.877Z,98.10
2018-12-25T08:09:20.457Z,97.60
2018-12-25T08:11:49.853Z,97.50
2018-12-25T08:14:18.330Z,97.70
2018-12-25T08:16:46.702Z,97.90
2018-12-25T08:19:15.101Z,99.20
2018-12-25T08:21:43.642Z,99.50
2018-12-25T08:24:12.099Z,99.40
2018-12-25T08:26:42.210Z,98.80
2018-12-25T08:29:10.909Z,99.10
2018-12-25T08:31:39.284Z,98.70
2018-12-25T08:34:08.910Z,98.00
2018-12-25T08:36:37.376Z,97.40
2018-12-25T08:39:06.724Z,96.90
2018-12-25T08:41:35.136Z,96.50
2018-12-25T08:44:03.549Z,96.10
2018-12-25T08:46:34.696Z,96.10
2018-12-25T08:49:03.094Z,96.10
2018-12-25T08:51:37.656Z,95.80
2018-12-25T08:54:01.533Z,95.70
2018-12-25T08:56:31.684Z,95.70
2018-12-25T08:59:00.553Z,95.30
2018-12-25T09:01:30.881Z,94.90
2018-12-25T09:03:59.382Z,94.70
2018-12-25T09:06:27.879Z,94.90
2018-12-25T09:08:56.252Z,94.70
2018-12-25T09:11:24.751Z,95.10
2018-12-25T09:13:53.301Z,95.00
2018-12-25T09:16:21.696Z,95.10
2018-12-25T09:18:50.069Z,95.00
2018-12-25T09:21:18.493Z,94.80
2018-12-25T09:23:46.957Z,94.80
2018-12-25T09:26:15.352Z,94.60
2018-12-25T09:28:44.029Z,94.50
2018-12-25T09:31:12.385Z,94.00
2018-12-25T09:33:40.761Z,94.50
2018-12-25T09:36:09.244Z,94.60
2018-12-25T09:38:39.259Z,94.60
2018-12-25T09:41:07.657Z,94.60
2018-12-25T09:43:36.056Z,94.90
2018-12-25T09:46:06.224Z,94.80
2018-12-25T09:48:34.584Z,94.90
2018-12-25T09:51:03.358Z,94.60
2018-12-25T09:53:31.729Z,94.50
2018-12-25T09:56:00.159Z,94.80
2018-12-25T09:58:28.534Z,95.10
2018-12-25T10:00:56.940Z,94.90
2018-12-25T10:03:27.808Z,95.00
2018-12-25T10:05:56.206Z,95.10
2018-12-25T10:08:24.667Z,94.60
2018-12-25T10:10:54.202Z,94.70
2018-12-25T10:13:22.571Z,94.70
2018-12-25T10:15:52.077Z,94.60
2018-12-25T10:18:20.494Z,94.00
2018-12-25T10:20:48.975Z,94.00
2018-12-25T10:23:17.400Z,93.90
2018-12-25T10:25:45.810Z,94.00
2018-12-25T10:28:15.285Z,93.70
2018-12-25T10:30:43.698Z,93.90
2018-12-25T10:33:12.211Z,93.80
2018-12-25T10:35:40.608Z,93.00
2018-12-25T10:38:08.967Z,92.00
2018-12-25T10:40:37.365Z,92.50
2018-12-25T10:43:07.895Z,92.90
2018-12-25T10:45:36.355Z,92.90
2018-12-25T10:48:04.774Z,92.70
2018-12-25T10:50:33.147Z,92.80
2018-12-25T10:53:02.793Z,92.30
2018-12-25T10:55:31.104Z,92.20
2018-12-25T10:57:59.521Z,92.30
2018-12-25T11:00:30.640Z,92.70
2018-12-25T11:02:59.045Z,92.60
2018-12-25T11:05:27.434Z,92.50
2018-12-25T11:07:55.836Z,92.50
2018-12-25T11:10:24.258Z,91.80
2018-12-25T11:12:54.367Z,92.40
2018-12-25T11:15:23.340Z,91.90
2018-12-25T11:17:51.775Z,93.20
2018-12-25T11:20:20.149Z,93.20
2018-12-25T11:22:48.927Z,92.50
2018-12-25T11:25:18.646Z,91.80
2018-12-25T11:27:47.039Z,90.40
2018-12-25T11:30:15.992Z,88.20
2018-12-25T11:32:44.501Z,83.30
2018-12-25T11:35:12.980Z,79.50
2018-12-25T11:37:41.531Z,74.60
2018-12-25T11:40:10.179Z,73.50
2018-12-25T11:42:38.580Z,73.50
2018-12-25T11:45:06.972Z,74.10
2018-12-25T11:47:35.372Z,69.80
2018-12-25T11:50:03.738Z,68.20
2018-12-25T11:52:32.148Z,64.20
2018-12-25T11:55:00.526Z,60.50
2018-12-25T11:57:28.915Z,61.30
2018-12-25T11:59:57.443Z,63.60
2018-12-25T12:02:27.872Z,68.40
2018-12-25T12:04:56.163Z,70.20
2018-12-25T12:07:24.781Z,71.70
2018-12-25T12:09:53.158Z,74.10
2018-12-25T12:12:21.865Z,79.10
2018-12-25T12:14:50.255Z,81.10
2018-12-25T12:17:20.255Z,82.90
2018-12-25T12:19:48.647Z,83.80
2018-12-25T12:22:17.234Z,84.30
2018-12-25T12:24:46.310Z,84.00
2018-12-25T12:27:15.335Z,85.40
2018-12-25T12:29:44.797Z,85.90
2018-12-25T12:32:13.089Z,85.40
2018-12-25T12:34:41.595Z,87.00
2018-12-25T12:37:09.973Z,86.20
2018-12-25T12:39:39.460Z,87.00
2018-12-25T12:42:07.819Z,86.40
2018-12-25T12:44:36.234Z,90.50
2018-12-25T12:47:06.575Z,90.20
2018-12-25T12:49:35.316Z,90.30
2018-12-25T12:52:05.447Z,91.10
2018-12-25T12:54:34.386Z,91.70
2018-12-25T12:57:03.889Z,92.30
2018-12-25T12:59:33.201Z,91.60
2018-12-25T13:02:01.918Z,91.60
2018-12-25T13:04:31.237Z,91.60
2018-12-25T13:06:59.980Z,91.80
2018-12-25T13:09:28.988Z,92.20
2018-12-25T13:11:57.646Z,91.80
2018-12-25T13:14:26.251Z,91.70
2018-12-25T13:16:55.970Z,91.30
2018-12-25T13:19:25.503Z,91.10
2018-12-25T13:21:54.301Z,90.70
2018-12-25T13:24:24.608Z,90.60
2018-12-25T13:26:53.630Z,90.40
2018-12-25T13:29:22.612Z,90.70
2018-12-25T13:31:52.442Z,90.70
2018-12-25T13:34:21.658Z,91.00
2018-12-25T13:36:52.363Z,91.10
2018-12-25T13:39:20.936Z,91.00
2018-12-25T13:41:49.313Z,91.20
2018-12-25T13:44:17.699Z,91.30
2018-12-25T13:46:51.570Z,91.70
2018-12-25T13:49:16.217Z,92.00
2018-12-25T13:51:45.025Z,91.70
2018-12-25T13:54:13.481Z,91.10
2018-12-25T13:56:41.854Z,90.70
2018-12-25T13:59:10.243Z,91.00
2018-12-25T14:01:38.616Z,91.80
2018-12-25T14:04:07.009Z,91.70
2018-12-25T14:06:35.404Z,91.90
2018-12-25T14:09:05.415Z,91.80
2018-12-25T14:11:33.814Z,92.00
2018-12-25T14:14:02.184Z,92.20
2018-12-25T14:16:30.615Z,92.20
2018-12-25T14:18:58.983Z,92.10
2018-12-25T14:21:27.394Z,92.80
2018-12-25T14:23:55.763Z,94.10
2018-12-25T14:26:24.825Z,94.30
2018-12-25T14:28:53.313Z,94.20
2018-12-25T14:31:21.755Z,94.20
2018-12-25T14:33:50.118Z,94.30
2018-12-25T14:36:18.617Z,95.00
2018-12-25T14:38:46.996Z,95.20
2018-12-25T14:41:15.447Z,94.80
2018-12-25T14:43:44.055Z,93.90
2018-12-25T14:46:12.753Z,94.00
2018-12-25T14:48:41.123Z,95.10
2018-12-25T14:51:09.522Z,95.00
2018-12-25T14:53:57.320Z,95.60
2018-12-25T14:56:27.344Z,95.90
2018-12-25T14:58:55.715Z,96.20
2018-12-25T15:01:24.120Z,96.40
2018-12-25T15:03:52.608Z,97.90
2018-12-25T15:06:21.000Z,97.90
2018-12-25T15:08:50.629Z,98.10
2018-12-25T15:11:19.019Z,98.30
2018-12-25T15:13:47.390Z,98.20
2018-12-25T15:16:16.809Z,97.80
2018-12-25T15:18:46.396Z,97.70
2018-12-25T15:21:14.862Z,97.30
2018-12-25T15:23:46.960Z,97.50
2018-12-25T15:26:15.356Z,98.20
2018-12-25T15:28:43.736Z,97.80
2018-12-25T15:31:12.156Z,97.50
2018-12-25T15:33:40.527Z,97.60
2018-12-25T15:36:09.074Z,97.40
2018-12-25T15:38:37.520Z,97.40
2018-12-25T15:41:05.927Z,97.50
2018-12-25T15:43:34.292Z,97.20
2018-12-25T15:46:02.679Z,97.10
2018-12-25T15:48:31.321Z,96.90
2018-12-25T15:50:59.712Z,96.70
2018-12-25T15:53:36.596Z,96.40
2018-12-25T15:55:58.143Z,96.20
2018-12-25T15:58:26.578Z,96.10
2018-12-25T16:00:54.979Z,96.30
2018-12-25T16:03:23.403Z,96.60
2018-12-25T16:05:52.656Z,96.70
2018-12-25T16:08:21.240Z,96.90
2018-12-25T16:10:49.618Z,97.40
2018-12-25T16:13:18.017Z,98.00
2018-12-25T16:15:46.503Z,98.10
2018-12-25T16:18:14.909Z,98.20
2018-12-25T16:20:43.275Z,97.80
2018-12-25T16:23:13.165Z,98.20
2018-12-25T16:25:46.174Z,97.90
2018-12-25T16:28:14.282Z,97.70
2018-12-25T16:30:42.672Z,97.50
2018-12-25T16:33:11.078Z,97.50
2018-12-25T16:35:40.911Z,97.10
2018-12-25T16:38:09.299Z,97.20
2018-12-25T16:40:37.668Z,96.90
2018-12-25T16:43:06.068Z,96.80
2018-12-25T16:45:34.451Z,96.80
2018-12-25T16:48:02.843Z,97.80
2018-12-25T16:50:31.219Z,97.90
2018-12-25T16:52:59.932Z,98.20
2018-12-25T16:55:28.320Z,98.80
2018-12-25T16:57:57.583Z,99.50
2018-12-25T17:00:27.304Z,99.90
2018-12-25T17:02:58.139Z,99.90
2018-12-25T17:05:26.567Z,99.90
2018-12-25T17:07:54.975Z,99.90
2018-12-25T17:10:24.321Z,99.90
2018-12-25T17:12:52.905Z,99.90
2018-12-25T17:15:22.915Z,99.90
2018-12-25T17:17:51.319Z,99.90
2018-12-25T17:20:19.973Z,99.90
2018-12-25T17:22:48.425Z,99.90
2018-12-25T17:25:16.992Z,99.90
2018-12-25T17:27:45.393Z,99.90
2018-12-25T17:30:14.177Z,99.90
2018-12-25T17:32:42.672Z,99.90
2018-12-25T17:35:12.699Z,99.90
2018-12-25T17:37:42.731Z,99.90
2018-12-25T17:40:11.111Z,99.90
2018-12-25T17:42:39.516Z,99.90
2018-12-25T17:45:07.908Z,99.90
2018-12-25T17:47:36.375Z,99.90
2018-12-25T17:50:05.800Z,99.90
2018-12-25T17:52:34.544Z,99.90
2018-12-25T17:55:02.947Z,99.90
2018-12-25T17:57:31.323Z,99.90
2018-12-25T18:00:00.277Z,99.90
2018-12-25T18:02:28.627Z,99.90
2018-12-25T18:04:57.028Z,99.90
2018-12-25T18:07:25.398Z,99.90
2018-12-25T18:09:53.795Z,99.90
2018-12-25T18:12:22.172Z,99.90
2018-12-25T18:14:50.570Z,99.90
2018-12-25T18:17:19.230Z,99.90
2018-12-25T18:19:47.650Z,99.90
2018-12-25T18:22:16.024Z,99.90
2018-12-25T18:24:44.425Z,99.90
2018-12-25T18:27:12.876Z,99.90
2018-12-25T18:29:41.272Z,99.90
2018-12-25T18:32:10.102Z,99.90
2018-12-25T18:34:38.493Z,99.90
2018-12-25T18:37:07.009Z,99.90
2018-12-25T18:39:36.397Z,99.90
2018-12-25T18:42:04.776Z,99.90
2018-12-25T18:44:33.288Z,99.90
2018-12-25T18:47:02.580Z,99.90
2018-12-25T18:49:30.924Z,99.90
2018-12-25T18:51:59.303Z,99.90
2018-12-25T18:54:28.201Z,99.90
2018-12-25T18:56:59.331Z,99.90
2018-12-25T18:59:28.819Z,99.90
2018-12-25T19:01:57.194Z,99.90
2018-12-25T19:04:26.875Z,99.90
2018-12-25T19:06:55.418Z,99.90
2018-12-25T19:09:23.803Z,99.90
2018-12-25T19:11:52.185Z,99.90
2018-12-25T19:14:21.803Z,99.90
2018-12-25T19:16:51.548Z,99.90
2018-12-25T19:19:20.081Z,99.90
2018-12-25T19:21:48.478Z,99.90
2018-12-25T19:24:17.223Z,99.90
2018-12-25T19:26:45.628Z,99.90
2018-12-25T19:29:14.009Z,99.90
2018-12-25T19:31:42.499Z,99.90
2018-12-25T19:34:10.888Z,99.90
2018-12-25T19:36:39.284Z,99.90
2018-12-25T19:39:07.663Z,99.90
2018-12-25T19:41:36.059Z,99.90
2018-12-25T19:44:04.431Z,99.90
2018-12-25T19:46:33.279Z,99.90
2018-12-25T19:49:01.666Z,99.90
2018-12-25T19:51:30.149Z,99.90
2018-12-25T19:53:58.543Z,99.90
2018-12-25T19:56:26.934Z,99.90
2018-12-25T19:58:56.947Z,99.90
2018-12-25T20:01:25.339Z,99.90
2018-12-25T20:03:53.714Z,99.90
2018-12-25T20:06:51.230Z,99.90
2018-12-25T20:09:56.279Z,99.90
2018-12-25T20:12:42.821Z,99.90
2018-12-25T20:15:26.244Z,99.90
2018-12-25T20:18:07.415Z,99.90
2018-12-25T20:20:39.049Z,99.90
2018-12-25T20:23:30.943Z,99.90
2018-12-25T20:26:05.529Z,99.90
2018-12-25T20:28:42.805Z,99.90
2018-12-25T20:31:29.380Z,99.90
2018-12-25T20:34:18.760Z,99.90
2018-12-25T20:37:05.449Z,99.90
2018-12-25T20:39:49.210Z,99.90
2018-12-25T20:42:20.865Z,99.90
2018-12-25T20:45:27.603Z,99.90
2018-12-25T20:48:18.823Z,99.90
2018-12-25T20:51:02.440Z,99.90
2018-12-25T20:53:50.517Z,99.90
2018-12-25T20:56:39.639Z,99.90
2018-12-25T20:59:13.948Z,99.90
2018-12-25T21:02:00.351Z,99.90
2018-12-25T21:04:56.346Z,99.90
2018-12-25T21:07:33.279Z,99.90
2018-12-25T21:10:17.175Z,99.90
2018-12-25T21:13:04.132Z,99.90
2018-12-25T21:16:05.135Z,99.90
2018-12-25T21:19:00.440Z,99.90
2018-12-25T21:21:44.172Z,99.90
2018-12-25T21:24:49.249Z,99.90
2018-12-25T21:27:32.454Z,99.90
2018-12-25T21:30:02.067Z,99.90
2018-12-25T21:32:31.212Z,99.90
2018-12-25T21:35:20.497Z,99.90
2018-12-25T21:37:49.167Z,99.90
2018-12-25T21:40:17.515Z,99.90
2018-12-25T21:42:46.384Z,99.90
2018-12-25T21:45:14.766Z,99.90
2018-12-25T21:47:43.288Z,99.90
2018-12-25T21:50:11.655Z,99.90
2018-12-25T21:52:40.383Z,99.90
2018-12-25T21:55:18.324Z,99.90
2018-12-25T21:57:39.655Z,99.90
2018-12-25T22:00:10.885Z,99.90
2018-12-25T22:02:40.047Z,99.90
2018-12-25T22:05:08.566Z,99.90
2018-12-25T22:07:36.967Z,99.90
2018-12-25T22:10:07.275Z,99.90
2018-12-25T22:12:35.692Z,99.90
2018-12-25T22:15:05.012Z,99.90
2018-12-25T22:17:33.408Z,99.60
2018-12-25T22:20:02.069Z,99.80
2018-12-25T22:22:30.664Z,99.90
2018-12-25T22:24:59.035Z,99.90
2018-12-25T22:27:28.459Z,99.90
2018-12-25T22:29:57.503Z,99.90
2018-12-25T22:32:27.604Z,99.90
2018-12-25T22:34:56.249Z,99.90
2018-12-25T22:37:24.663Z,99.80
2018-12-25T22:39:53.039Z,99.60
2018-12-25T22:42:21.740Z,99.10
2018-12-25T22:44:50.124Z,99.20
2018-12-25T22:47:18.523Z,99.70
2018-12-25T22:49:46.908Z,99.50
2018-12-25T22:52:15.311Z,99.20
2018-12-25T22:54:43.708Z,99.10
2018-12-25T22:57:12.145Z,99.10
2018-12-25T22:59:42.176Z,99.20
2018-12-25T23:02:10.681Z,98.70
2018-12-25T23:04:39.479Z,99.90
2018-12-25T23:07:07.917Z,99.90
2018-12-25T23:09:37.945Z,99.90
2018-12-25T23:12:06.320Z,99.90
2018-12-25T23:14:34.726Z,99.90
2018-12-25T23:17:03.095Z,99.90
2018-12-25T23:19:31.495Z,99.90
2018-12-25T23:21:59.867Z,99.90
2018-12-25T23:24:28.268Z,99.90
2018-12-25T23:26:56.657Z,99.90
2018-12-25T23:29:25.053Z,99.90
2018-12-25T23:31:53.425Z,99.90
2018-12-25T23:34:22.109Z,99.90
2018-12-25T23:36:52.338Z,99.90
2018-12-25T23:39:20.844Z,99.90
2018-12-25T23:41:50.360Z,99.90
2018-12-25T23:44:18.765Z,99.90
2018-12-25T23:46:47.138Z,99.90
2018-12-25T23:49:15.534Z,99.90
2018-12-25T23:51:43.911Z,99.90
2018-12-25T23:54:12.378Z,99.90
2018-12-25T23:56:41.015Z,99.90
2018-12-25T23:59:09.436Z,99.90
